createdAt,value
2018-12-09T00:00:39.269Z,20.2
2018-12-09T00:06:34.250Z,22.37
2018-12-09T00:12:29.270Z,18.46
2018-12-09T00:18:24.254Z,19.48
2018-12-09T00:24:19.250Z,18.56
2018-12-09T00:30:14.270Z,18.45
2018-12-09T00:36:09.286Z,15.67
2018-12-09T00:42:04.305Z,15.91
2018-12-09T00:47:59.287Z,17.24
2018-12-09T00:53:54.308Z,11.91
2018-12-09T00:59:49.298Z,16.84
2018-12-09T01:05:44.273Z,15.53
2018-12-09T01:11:39.362Z,18.37
2018-12-09T01:17:34.287Z,15.07
2018-12-09T01:23:29.312Z,17.81
2018-12-09T01:29:24.299Z,14.5
2018-12-09T01:35:19.312Z,17.26
2018-12-09T01:41:14.365Z,20.13
2018-12-09T01:47:09.315Z,19
2018-12-09T01:53:04.321Z,18.66
2018-12-09T01:58:59.317Z,16.44
2018-12-09T02:04:54.325Z,16.63
2018-12-09T02:10:49.329Z,21.93
2018-12-09T02:16:44.333Z,22.42
2018-12-09T02:22:39.343Z,19.78
2018-12-09T02:28:34.337Z,20.58
2018-12-09T02:34:29.323Z,20.7
2018-12-09T02:40:24.346Z,23.22
2018-12-09T02:46:19.339Z,17.02
2018-12-09T02:52:14.368Z,17.55
2018-12-09T02:58:09.355Z,18.64
2018-12-09T03:04:04.400Z,14.6
2018-12-09T03:09:59.386Z,16.52
2018-12-09T03:15:54.381Z,13.45
2018-12-09T03:21:49.365Z,8.7
2018-12-09T03:27:44.355Z,17.65
2018-12-09T03:33:39.377Z,19.75
2018-12-09T03:39:34.357Z,15.84
2018-12-09T03:45:29.427Z,14.83
2018-12-09T03:51:24.368Z,16.29
2018-12-09T03:57:19.407Z,19.46
2018-12-09T04:03:14.384Z,11.75
2018-12-09T04:09:09.540Z,13.14
2018-12-09T04:15:04.448Z,11.25
2018-12-09T04:20:59.414Z,10.14
2018-12-09T04:26:54.411Z,14.11
2018-12-09T04:32:49.447Z,11.19
2018-12-09T04:38:44.414Z,10.96
2018-12-09T04:44:39.468Z,10.67
2018-12-09T04:50:34.430Z,12.21
2018-12-09T04:56:29.439Z,16.58
2018-12-09T05:02:24.421Z,12.23
2018-12-09T05:08:19.456Z,12.21
2018-12-09T05:14:14.425Z,11.68
2018-12-09T05:20:09.440Z,14.89
2018-12-09T05:26:04.453Z,9.17
2018-12-09T05:31:59.459Z,13.4
2018-12-09T05:37:54.437Z,12.26
2018-12-09T05:43:49.451Z,11.09
2018-12-09T05:49:44.445Z,13.26
2018-12-09T05:55:39.442Z,12.54
2018-12-09T06:01:34.452Z,11.31
2018-12-09T06:07:29.483Z,15.02
2018-12-09T06:13:24.492Z,12.03
2018-12-09T06:19:19.453Z,13.97
2018-12-09T06:25:14.535Z,12.58
2018-12-09T06:31:09.484Z,8.23
2018-12-09T06:37:04.460Z,13.83
2018-12-09T06:42:59.459Z,10.28
2018-12-09T06:48:54.491Z,8.17
2018-12-09T06:54:49.469Z,12
2018-12-09T07:00:44.500Z,9.11
2018-12-09T07:06:39.472Z,11.97
2018-12-09T07:12:34.465Z,10.26
2018-12-09T07:18:29.466Z,10.13
2018-12-09T07:24:24.522Z,15.33
2018-12-09T07:30:19.490Z,15.36
2018-12-09T07:36:14.502Z,14.77
2018-12-09T07:42:09.502Z,12.96
2018-12-09T07:48:04.537Z,23.63
2018-12-09T07:53:59.513Z,19.46
2018-12-09T07:59:54.488Z,17.1
2018-12-09T08:05:49.545Z,20.46
2018-12-09T08:11:44.507Z,16.67
2018-12-09T08:17:39.535Z,16.77
2018-12-09T08:23:34.538Z,13.04
2018-12-09T08:29:29.527Z,13.03
2018-12-09T08:35:24.514Z,16.62
2018-12-09T08:41:19.518Z,35.58
2018-12-09T08:47:14.555Z,26.78
2018-12-09T08:53:09.520Z,23.96
2018-12-09T08:59:05.700Z,20.73
2018-12-09T09:04:59.533Z,27.44
2018-12-09T09:10:54.535Z,20.69
2018-12-09T09:16:49.588Z,31.98
2018-12-09T09:22:44.553Z,18.61
2018-12-09T09:28:39.592Z,26.1
2018-12-09T09:34:34.557Z,14.21
2018-12-09T09:40:29.553Z,21.69
2018-12-09T09:46:24.565Z,19.54
2018-12-09T09:52:19.626Z,14.62
2018-12-09T09:58:14.612Z,21.42
2018-12-09T10:04:09.567Z,17.51
2018-12-09T10:10:04.596Z,28.17
2018-12-09T10:15:59.554Z,26.96
2018-12-09T10:21:54.573Z,22.57
2018-12-09T10:27:49.587Z,25.07
2018-12-09T10:33:44.592Z,22.62
2018-12-09T10:39:39.577Z,26.5
2018-12-09T10:45:34.595Z,21.84
2018-12-09T10:51:29.655Z,25.88
2018-12-09T10:57:24.598Z,42.62
2018-12-09T11:03:19.608Z,22.1
2018-12-09T11:09:14.607Z,22.64
2018-12-09T11:15:09.612Z,18.53
2018-12-09T11:21:04.623Z,26.26
2018-12-09T11:26:59.622Z,22.22
2018-12-09T11:32:54.703Z,23.04
2018-12-09T11:38:49.637Z,22.14
2018-12-09T11:44:44.642Z,24.84
2018-12-09T11:50:39.644Z,14.45
2018-12-09T11:56:34.652Z,24.11
2018-12-09T12:02:29.632Z,20.07
2018-12-09T12:08:24.696Z,18.36
2018-12-09T12:14:19.647Z,15.38
2018-12-09T12:20:14.692Z,18.29
2018-12-09T12:26:09.660Z,17.28
2018-12-09T12:32:04.658Z,18.21
2018-12-09T12:37:59.670Z,24.09
2018-12-09T12:43:54.660Z,22.23
2018-12-09T12:49:49.669Z,12.37
2018-12-09T12:55:44.725Z,26.57
2018-12-09T13:01:39.717Z,20.03
2018-12-09T13:07:34.681Z,16.31
2018-12-09T13:13:29.762Z,18.33
2018-12-09T13:19:24.702Z,18.43
2018-12-09T13:25:19.711Z,26.17
2018-12-09T13:31:14.718Z,26.4
2018-12-09T13:37:09.730Z,34.75
2018-12-09T13:43:04.730Z,25.54
2018-12-09T13:48:59.712Z,24.01
2018-12-09T13:54:54.713Z,32.95
2018-12-09T14:00:49.726Z,24.19
2018-12-09T14:06:44.716Z,26.02
2018-12-09T14:12:39.729Z,22.33
2018-12-09T14:18:34.791Z,23.12
2018-12-09T14:24:29.724Z,18.84
2018-12-09T14:30:24.817Z,17.66
2018-12-09T14:36:19.736Z,36.24
2018-12-09T14:42:14.726Z,19.18
2018-12-09T14:48:09.760Z,25.75
2018-12-09T14:54:04.726Z,27.47
2018-12-09T14:59:59.771Z,26.03
2018-12-09T15:05:54.744Z,29.1
2018-12-09T15:11:49.770Z,25.58
2018-12-09T15:17:44.767Z,30.52
2018-12-09T15:23:39.802Z,25.46
2018-12-09T15:29:34.865Z,25.39
2018-12-09T15:35:29.760Z,31.5
2018-12-09T15:41:24.778Z,30.46
2018-12-09T15:47:19.774Z,26.04
2018-12-09T15:53:14.777Z,31.44
2018-12-09T15:59:09.851Z,22.18
2018-12-09T16:05:04.796Z,28.13
2018-12-09T16:10:59.872Z,35.15
2018-12-09T16:16:54.794Z,24.13
2018-12-09T16:22:49.824Z,22.16
2018-12-09T16:28:44.797Z,36.93
2018-12-09T16:34:39.849Z,36.03
2018-12-09T16:40:34.814Z,31.31
2018-12-09T16:46:29.801Z,33.74
2018-12-09T16:52:24.807Z,32.19
2018-12-09T16:58:19.808Z,60.39
2018-12-09T17:04:14.866Z,31.37
2018-12-09T17:10:09.831Z,42.86
2018-12-09T17:16:04.842Z,44.33
2018-12-09T17:21:59.841Z,35.17
2018-12-09T17:27:54.857Z,37.07
2018-12-09T17:33:49.873Z,37.63
2018-12-09T17:39:44.843Z,35.48
2018-12-09T17:45:39.836Z,33.89
2018-12-09T17:51:34.869Z,35.5
2018-12-09T17:57:29.869Z,28.01
2018-12-09T18:03:24.918Z,29.59
2018-12-09T18:09:19.878Z,26.1
2018-12-09T18:15:14.888Z,36.11
2018-12-09T18:21:09.876Z,30.75
2018-12-09T18:27:04.901Z,30.73
2018-12-09T18:32:59.882Z,28.31
2018-12-09T18:38:54.898Z,48.97
2018-12-09T18:44:49.923Z,31.83
2018-12-09T18:50:44.880Z,37.55
2018-12-09T18:56:39.887Z,29.71
2018-12-09T19:02:34.904Z,39.7
2018-12-09T19:08:29.905Z,40.01
2018-12-09T19:14:24.916Z,38.81
2018-12-09T19:20:19.918Z,36.16
2018-12-09T19:26:16.711Z,29.69
2018-12-09T19:32:09.926Z,23.65
2018-12-09T19:38:04.935Z,28.1
2018-12-09T19:43:59.965Z,33.34
2018-12-09T19:49:54.947Z,29.47
2018-12-09T19:55:49.916Z,28.52
2018-12-09T20:01:44.958Z,25.62
2018-12-09T20:07:39.933Z,29.92
2018-12-09T20:13:34.956Z,40.67
2018-12-09T20:19:29.939Z,34.7
2018-12-09T20:25:24.983Z,30.1
2018-12-09T20:31:19.934Z,28.45
2018-12-09T20:37:15.010Z,34.18
2018-12-09T20:43:09.958Z,31.8
2018-12-09T20:49:04.960Z,21.91
2018-12-09T20:55:00.038Z,31.57
2018-12-09T21:00:54.984Z,29.96
2018-12-09T21:06:50.044Z,25.08
2018-12-09T21:12:44.960Z,28.79
2018-12-09T21:18:39.964Z,44.52
2018-12-09T21:24:34.983Z,37.09
2018-12-09T21:30:29.994Z,26.76
2018-12-09T21:36:25.024Z,25.64
2018-12-09T21:42:20.015Z,42.47
2018-12-09T21:48:15.075Z,33.77
2018-12-09T21:54:10.024Z,49.1
2018-12-09T22:00:05.075Z,32.42
2018-12-09T22:06:00.092Z,28.99
2018-12-09T22:11:55.006Z,23.63
2018-12-09T22:17:50.007Z,23.37
2018-12-09T22:23:45.013Z,25.15
2018-12-09T22:29:40.024Z,32.74
2018-12-09T22:35:35.102Z,20.56
2018-12-09T22:41:30.013Z,22.25
2018-12-09T22:47:25.038Z,24.5
2018-12-09T22:53:20.026Z,21.02
2018-12-09T22:59:15.054Z,23.91
2018-12-09T23:05:10.034Z,24.34
2018-12-09T23:11:05.035Z,24.45
2018-12-09T23:17:00.050Z,19.66
2018-12-09T23:22:55.051Z,30.13
2018-12-09T23:28:50.066Z,24.25
2018-12-09T23:34:45.072Z,27.91
2018-12-09T23:40:40.059Z,42.41
2018-12-09T23:46:35.101Z,27.37
2018-12-09T23:52:30.081Z,25.09
2018-12-09T23:58:25.056Z,32.73
